sensor_id;sensor_type;location;lat;lon;timestamp;P1;durP1;ratioP1;P2;durP2;ratioP2
72674;SDS011;60752;53.962;9.614;2023-07-30T00:09:11;9.27;;;4.73;;
72674;SDS011;60752;53.962;9.614;2023-07-30T00:39:12;9.27;;;4.13;;
72674;SDS011;60752;53.962;9.614;2023-07-30T01:09:14;11.37;;;4.90;;
72674;SDS011;60752;53.962;9.614;2023-07-30T01:39:16;7.17;;;3.57;;
72674;SDS011;60752;53.962;9.614;2023-07-30T02:09:18;8.47;;;4.70;;
72674;SDS011;60752;53.962;9.614;2023-07-30T02:39:19;9.73;;;5.10;;
72674;SDS011;60752;53.962;9.614;2023-07-30T03:09:21;10.97;;;6.23;;
72674;SDS011;60752;53.962;9.614;2023-07-30T03:39:23;14.10;;;8.17;;
72674;SDS011;60752;53.962;9.614;2023-07-30T04:09:24;14.60;;;6.77;;
72674;SDS011;60752;53.962;9.614;2023-07-30T04:39:26;11.60;;;5.37;;
72674;SDS011;60752;53.962;9.614;2023-07-30T05:09:28;10.57;;;4.63;;
72674;SDS011;60752;53.962;9.614;2023-07-30T05:39:29;9.43;;;4.67;;
72674;SDS011;60752;53.962;9.614;2023-07-30T06:09:31;11.80;;;3.70;;
72674;SDS011;60752;53.962;9.614;2023-07-30T06:39:32;13.33;;;4.40;;
72674;SDS011;60752;53.962;9.614;2023-07-30T07:09:34;11.47;;;3.23;;
72674;SDS011;60752;53.962;9.614;2023-07-30T07:39:36;10.83;;;3.67;;
72674;SDS011;60752;53.962;9.614;2023-07-30T08:09:37;12.07;;;3.10;;
72674;SDS011;60752;53.962;9.614;2023-07-30T08:39:39;11.23;;;3.27;;
72674;SDS011;60752;53.962;9.614;2023-07-30T09:09:41;11.90;;;3.50;;
72674;SDS011;60752;53.962;9.614;2023-07-30T09:39:43;7.97;;;3.33;;
72674;SDS011;60752;53.962;9.614;2023-07-30T10:09:45;9.90;;;2.90;;
72674;SDS011;60752;53.962;9.614;2023-07-30T10:39:49;6.57;;;1.70;;
72674;SDS011;60752;53.962;9.614;2023-07-30T11:09:59;6.87;;;2.10;;
72674;SDS011;60752;53.962;9.614;2023-07-30T11:40:01;6.47;;;1.70;;
72674;SDS011;60752;53.962;9.614;2023-07-30T12:10:07;6.97;;;2.30;;
72674;SDS011;60752;53.962;9.614;2023-07-30T12:40:09;5.90;;;1.70;;
72674;SDS011;60752;53.962;9.614;2023-07-30T13:10:11;4.57;;;1.87;;
72674;SDS011;60752;53.962;9.614;2023-07-30T13:40:13;5.30;;;1.40;;
72674;SDS011;60752;53.962;9.614;2023-07-30T14:10:15;4.77;;;1.20;;
72674;SDS011;60752;53.962;9.614;2023-07-30T14:40:16;5.73;;;1.30;;
72674;SDS011;60752;53.962;9.614;2023-07-30T15:10:18;9.20;;;1.93;;
72674;SDS011;60752;53.962;9.614;2023-07-30T15:40:20;6.80;;;1.80;;
72674;SDS011;60752;53.962;9.614;2023-07-30T16:10:21;5.93;;;1.83;;
72674;SDS011;60752;53.962;9.614;2023-07-30T16:40:23;4.30;;;1.37;;
72674;SDS011;60752;53.962;9.614;2023-07-30T17:10:25;5.83;;;1.20;;
72674;SDS011;60752;53.962;9.614;2023-07-30T17:40:27;6.37;;;1.33;;
72674;SDS011;60752;53.962;9.614;2023-07-30T18:10:28;13.57;;;2.47;;
72674;SDS011;60752;53.962;9.614;2023-07-30T18:40:30;6.30;;;1.53;;
72674;SDS011;60752;53.962;9.614;2023-07-30T19:10:31;3.90;;;0.90;;
72674;SDS011;60752;53.962;9.614;2023-07-30T19:40:33;3.53;;;0.83;;
72674;SDS011;60752;53.962;9.614;2023-07-30T20:10:35;6.53;;;1.20;;
72674;SDS011;60752;53.962;9.614;2023-07-30T20:40:37;5.13;;;1.10;;
72674;SDS011;60752;53.962;9.614;2023-07-30T21:10:38;2.67;;;1.10;;
72674;SDS011;60752;53.962;9.614;2023-07-30T21:40:40;2.90;;;1.20;;
72674;SDS011;60752;53.962;9.614;2023-07-30T22:10:47;5.40;;;1.17;;
72674;SDS011;60752;53.962;9.614;2023-07-30T22:40:49;5.93;;;1.73;;
72674;SDS011;60752;53.962;9.614;2023-07-30T23:10:50;7.43;;;2.03;;
72674;SDS011;60752;53.962;9.614;2023-07-30T23:40:52;2.57;;;0.87;;
